Airport Name : Podor

Other Name : Podor

ICAO : GOSP

IATA : POD

FAA :

Latitude : 16.41

Longitude : -14.58

Country : Senegal

Local Date and Time : 17 Oct 2021 05:34

 

TAF (Terminal Aerodrome Forecast)

 

METAR (METeorological Aerodrome Report)

GOSP 170300Z 28002KT CAVOK 27/22 Q1009

To Charter a Jet Click here.